Terminal Aerodrome Forecast
Issued by NWS

Home | Current Version | Previous Version | Text Only | Print | Product List | Glossary On
Versions: 1 2 3 4 5 6 7 8 9 10 11 12 13 14 15 16 17 18
097
FTUS42 KFFC 222321
TAFPDK
TAF
KPDK 222321Z 2300/2324 27004KT P6SM SCT045 BKN250
     FM230100 22003KT P6SM SCT250
     FM231500 26008KT P6SM SCT040
     FM231700 24009KT P6SM VCSH BKN040 PROB30 2320/2324 3SM TSRA
      BKN035CB=

USA.gov is the U.S. government's official web portal to all federal, state and local government web resources and services.